sensor_id;sensor_type;location;lat;lon;timestamp;P1;durP1;ratioP1;P2;durP2;ratioP2
1753;SDS011;58380;48.312;9.246;2022-12-24T00:00:26;3.27;;;0.80;;
1753;SDS011;58380;48.312;9.246;2022-12-24T00:02:53;2.80;;;0.70;;
1753;SDS011;58380;48.312;9.246;2022-12-24T00:05:18;2.70;;;0.87;;
1753;SDS011;58380;48.312;9.246;2022-12-24T00:07:44;3.33;;;0.87;;
1753;SDS011;58380;48.312;9.246;2022-12-24T00:10:09;2.10;;;0.57;;
1753;SDS011;58380;48.312;9.246;2022-12-24T00:12:35;4.88;;;0.88;;
1753;SDS011;58380;48.312;9.246;2022-12-24T00:15:01;3.83;;;0.97;;
1753;SDS011;58380;48.312;9.246;2022-12-24T00:17:29;2.70;;;0.88;;
1753;SDS011;58380;48.312;9.246;2022-12-24T00:19:54;5.90;;;0.90;;
1753;SDS011;58380;48.312;9.246;2022-12-24T00:22:19;10.93;;;2.77;;
1753;SDS011;58380;48.312;9.246;2022-12-24T00:24:45;9.10;;;2.77;;
1753;SDS011;58380;48.312;9.246;2022-12-24T00:27:10;9.10;;;3.90;;
1753;SDS011;58380;48.312;9.246;2022-12-24T00:29:36;10.07;;;4.27;;
1753;SDS011;58380;48.312;9.246;2022-12-24T00:32:01;10.60;;;4.20;;
1753;SDS011;58380;48.312;9.246;2022-12-24T00:34:26;9.97;;;2.43;;
1753;SDS011;58380;48.312;9.246;2022-12-24T00:36:52;3.97;;;1.25;;
1753;SDS011;58380;48.312;9.246;2022-12-24T00:39:18;10.90;;;2.67;;
1753;SDS011;58380;48.312;9.246;2022-12-24T00:41:43;9.03;;;3.63;;
1753;SDS011;58380;48.312;9.246;2022-12-24T00:44:08;5.23;;;2.77;;
1753;SDS011;58380;48.312;9.246;2022-12-24T00:49:04;7.25;;;3.05;;
1753;SDS011;58380;48.312;9.246;2022-12-24T00:51:31;6.72;;;1.88;;
1753;SDS011;58380;48.312;9.246;2022-12-24T00:53:58;6.88;;;1.95;;
1753;SDS011;58380;48.312;9.246;2022-12-24T00:56:24;7.37;;;1.43;;
1753;SDS011;58380;48.312;9.246;2022-12-24T00:58:50;3.50;;;0.90;;
1753;SDS011;58380;48.312;9.246;2022-12-24T01:01:16;6.10;;;0.95;;
1753;SDS011;58380;48.312;9.246;2022-12-24T01:03:41;4.25;;;1.00;;
1753;SDS011;58380;48.312;9.246;2022-12-24T01:06:10;5.30;;;1.13;;
1753;SDS011;58380;48.312;9.246;2022-12-24T01:08:44;3.78;;;1.13;;
1753;SDS011;58380;48.312;9.246;2022-12-24T01:11:10;14.68;;;9.18;;
1753;SDS011;58380;48.312;9.246;2022-12-24T01:13:37;7.68;;;3.78;;
1753;SDS011;58380;48.312;9.246;2022-12-24T01:16:10;5.32;;;3.38;;
1753;SDS011;58380;48.312;9.246;2022-12-24T01:18:42;5.10;;;2.08;;
1753;SDS011;58380;48.312;9.246;2022-12-24T01:21:08;3.40;;;1.50;;
1753;SDS011;58380;48.312;9.246;2022-12-24T01:23:33;4.03;;;1.37;;
1753;SDS011;58380;48.312;9.246;2022-12-24T01:26:00;5.17;;;1.20;;
1753;SDS011;58380;48.312;9.246;2022-12-24T01:28:27;3.15;;;0.98;;
1753;SDS011;58380;48.312;9.246;2022-12-24T01:30:52;4.17;;;1.07;;
1753;SDS011;58380;48.312;9.246;2022-12-24T01:33:18;2.13;;;0.77;;
1753;SDS011;58380;48.312;9.246;2022-12-24T01:35:44;3.95;;;1.10;;
1753;SDS011;58380;48.312;9.246;2022-12-24T01:38:10;7.47;;;1.20;;
1753;SDS011;58380;48.312;9.246;2022-12-24T01:40:37;4.05;;;1.35;;
1753;SDS011;58380;48.312;9.246;2022-12-24T01:43:23;7.43;;;2.00;;
1753;SDS011;58380;48.312;9.246;2022-12-24T01:45:56;6.63;;;1.20;;
1753;SDS011;58380;48.312;9.246;2022-12-24T01:48:30;3.88;;;1.40;;
1753;SDS011;58380;48.312;9.246;2022-12-24T01:51:18;6.63;;;1.60;;
1753;SDS011;58380;48.312;9.246;2022-12-24T01:53:48;7.38;;;2.42;;
1753;SDS011;58380;48.312;9.246;2022-12-24T01:56:22;6.22;;;2.10;;
1753;SDS011;58380;48.312;9.246;2022-12-24T01:58:50;6.10;;;1.95;;
1753;SDS011;58380;48.312;9.246;2022-12-24T02:01:23;7.28;;;2.22;;
1753;SDS011;58380;48.312;9.246;2022-12-24T02:03:48;3.05;;;1.30;;
1753;SDS011;58380;48.312;9.246;2022-12-24T02:06:14;1.90;;;0.80;;
1753;SDS011;58380;48.312;9.246;2022-12-24T02:08:44;4.00;;;1.35;;
1753;SDS011;58380;48.312;9.246;2022-12-24T02:11:11;4.00;;;1.15;;
1753;SDS011;58380;48.312;9.246;2022-12-24T02:13:41;6.50;;;1.70;;
1753;SDS011;58380;48.312;9.246;2022-12-24T02:16:59;10.43;;;2.78;;
1753;SDS011;58380;48.312;9.246;2022-12-24T02:31:24;13.13;;;4.70;;
1753;SDS011;58380;48.312;9.246;2022-12-24T02:33:57;26.55;;;8.80;;
1753;SDS011;58380;48.312;9.246;2022-12-24T02:36:42;15.25;;;5.88;;
1753;SDS011;58380;48.312;9.246;2022-12-24T02:39:19;15.98;;;5.97;;
1753;SDS011;58380;48.312;9.246;2022-12-24T02:41:55;16.67;;;5.85;;
1753;SDS011;58380;48.312;9.246;2022-12-24T02:44:31;16.38;;;5.90;;
1753;SDS011;58380;48.312;9.246;2022-12-24T02:47:06;19.83;;;6.10;;
1753;SDS011;58380;48.312;9.246;2022-12-24T02:49:35;11.80;;;4.45;;
1753;SDS011;58380;48.312;9.246;2022-12-24T02:52:00;14.13;;;4.53;;
1753;SDS011;58380;48.312;9.246;2022-12-24T02:54:26;15.02;;;4.35;;
1753;SDS011;58380;48.312;9.246;2022-12-24T03:00:00;11.65;;;3.97;;
1753;SDS011;58380;48.312;9.246;2022-12-24T03:11:25;10.65;;;3.10;;
1753;SDS011;58380;48.312;9.246;2022-12-24T03:13:51;7.28;;;2.75;;
1753;SDS011;58380;48.312;9.246;2022-12-24T03:16:22;10.25;;;2.67;;
1753;SDS011;58380;48.312;9.246;2022-12-24T03:18:52;8.30;;;3.08;;
1753;SDS011;58380;48.312;9.246;2022-12-24T03:21:28;8.32;;;2.97;;
1753;SDS011;58380;48.312;9.246;2022-12-24T03:23:59;7.38;;;2.10;;
1753;SDS011;58380;48.312;9.246;2022-12-24T03:26:25;5.60;;;1.83;;
1753;SDS011;58380;48.312;9.246;2022-12-24T03:28:56;4.50;;;1.92;;
1753;SDS011;58380;48.312;9.246;2022-12-24T03:31:22;4.20;;;1.80;;
1753;SDS011;58380;48.312;9.246;2022-12-24T03:33:47;4.55;;;1.90;;
1753;SDS011;58380;48.312;9.246;2022-12-24T03:36:13;5.25;;;2.00;;
1753;SDS011;58380;48.312;9.246;2022-12-24T03:38:39;5.90;;;1.27;;
1753;SDS011;58380;48.312;9.246;2022-12-24T03:41:05;4.53;;;2.20;;
1753;SDS011;58380;48.312;9.246;2022-12-24T03:43:31;5.00;;;1.83;;
1753;SDS011;58380;48.312;9.246;2022-12-24T03:45:56;7.57;;;2.45;;
1753;SDS011;58380;48.312;9.246;2022-12-24T03:48:22;9.43;;;1.47;;
1753;SDS011;58380;48.312;9.246;2022-12-24T03:50:47;4.68;;;1.70;;
1753;SDS011;58380;48.312;9.246;2022-12-24T03:53:13;3.67;;;0.90;;
1753;SDS011;58380;48.312;9.246;2022-12-24T03:55:38;5.10;;;1.40;;
1753;SDS011;58380;48.312;9.246;2022-12-24T03:58:04;3.37;;;0.87;;
1753;SDS011;58380;48.312;9.246;2022-12-24T04:00:30;4.32;;;1.00;;
1753;SDS011;58380;48.312;9.246;2022-12-24T04:02:55;4.47;;;1.20;;
1753;SDS011;58380;48.312;9.246;2022-12-24T04:05:21;2.43;;;1.00;;
1753;SDS011;58380;48.312;9.246;2022-12-24T04:07:46;4.07;;;1.60;;
1753;SDS011;58380;48.312;9.246;2022-12-24T04:10:12;6.22;;;1.30;;
1753;SDS011;58380;48.312;9.246;2022-12-24T04:12:40;5.03;;;1.15;;
1753;SDS011;58380;48.312;9.246;2022-12-24T04:15:05;7.03;;;2.55;;
1753;SDS011;58380;48.312;9.246;2022-12-24T04:17:32;7.85;;;3.08;;
1753;SDS011;58380;48.312;9.246;2022-12-24T04:19:58;8.97;;;2.90;;
1753;SDS011;58380;48.312;9.246;2022-12-24T04:22:23;7.33;;;2.40;;
1753;SDS011;58380;48.312;9.246;2022-12-24T04:24:49;6.07;;;2.00;;
1753;SDS011;58380;48.312;9.246;2022-12-24T04:27:14;8.97;;;2.37;;
1753;SDS011;58380;48.312;9.246;2022-12-24T04:29:40;6.93;;;2.08;;
1753;SDS011;58380;48.312;9.246;2022-12-24T04:32:06;6.20;;;1.97;;
1753;SDS011;58380;48.312;9.246;2022-12-24T04:34:32;6.47;;;2.10;;
1753;SDS011;58380;48.312;9.246;2022-12-24T04:36:57;4.50;;;2.37;;
1753;SDS011;58380;48.312;9.246;2022-12-24T04:39:23;23.10;;;8.60;;
1753;SDS011;58380;48.312;9.246;2022-12-24T04:41:48;36.40;;;14.70;;
1753;SDS011;58380;48.312;9.246;2022-12-24T04:44:14;31.23;;;11.63;;
1753;SDS011;58380;48.312;9.246;2022-12-24T04:46:39;28.60;;;11.10;;
1753;SDS011;58380;48.312;9.246;2022-12-24T04:49:06;19.60;;;7.60;;
1753;SDS011;58380;48.312;9.246;2022-12-24T04:51:32;13.55;;;4.55;;
1753;SDS011;58380;48.312;9.246;2022-12-24T04:53:58;21.15;;;7.65;;
1753;SDS011;58380;48.312;9.246;2022-12-24T04:56:25;16.45;;;6.13;;
1753;SDS011;58380;48.312;9.246;2022-12-24T04:58:54;13.88;;;5.45;;
1753;SDS011;58380;48.312;9.246;2022-12-24T05:01:21;11.60;;;5.05;;
1753;SDS011;58380;48.312;9.246;2022-12-24T05:03:51;15.15;;;5.65;;
1753;SDS011;58380;48.312;9.246;2022-12-24T05:08:47;11.82;;;4.68;;
1753;SDS011;58380;48.312;9.246;2022-12-24T05:11:13;11.57;;;4.28;;
1753;SDS011;58380;48.312;9.246;2022-12-24T05:13:39;12.13;;;4.13;;
1753;SDS011;58380;48.312;9.246;2022-12-24T05:16:09;7.28;;;3.55;;
1753;SDS011;58380;48.312;9.246;2022-12-24T05:18:36;5.43;;;2.53;;
1753;SDS011;58380;48.312;9.246;2022-12-24T05:21:06;9.63;;;2.25;;
1753;SDS011;58380;48.312;9.246;2022-12-24T05:23:37;8.57;;;2.05;;
1753;SDS011;58380;48.312;9.246;2022-12-24T05:29:07;7.05;;;2.10;;
1753;SDS011;58380;48.312;9.246;2022-12-24T05:31:36;4.57;;;2.03;;
1753;SDS011;58380;48.312;9.246;2022-12-24T05:34:04;5.40;;;1.90;;
1753;SDS011;58380;48.312;9.246;2022-12-24T05:36:29;7.57;;;2.17;;
1753;SDS011;58380;48.312;9.246;2022-12-24T05:38:55;4.57;;;1.93;;
1753;SDS011;58380;48.312;9.246;2022-12-24T05:41:21;5.63;;;2.35;;
1753;SDS011;58380;48.312;9.246;2022-12-24T05:43:47;3.90;;;2.40;;
1753;SDS011;58380;48.312;9.246;2022-12-24T05:46:14;7.13;;;2.30;;
1753;SDS011;58380;48.312;9.246;2022-12-24T05:48:43;9.65;;;2.42;;
1753;SDS011;58380;48.312;9.246;2022-12-24T05:51:10;4.40;;;1.83;;
1753;SDS011;58380;48.312;9.246;2022-12-24T05:53:38;4.30;;;2.08;;
1753;SDS011;58380;48.312;9.246;2022-12-24T05:58:33;5.15;;;2.33;;
1753;SDS011;58380;48.312;9.246;2022-12-24T06:03:26;3.72;;;2.13;;
1753;SDS011;58380;48.312;9.246;2022-12-24T06:08:41;7.97;;;2.80;;
1753;SDS011;58380;48.312;9.246;2022-12-24T06:11:08;10.67;;;2.80;;
1753;SDS011;58380;48.312;9.246;2022-12-24T06:13:37;8.65;;;2.50;;
1753;SDS011;58380;48.312;9.246;2022-12-24T06:16:04;11.07;;;3.45;;
1753;SDS011;58380;48.312;9.246;2022-12-24T06:18:33;8.55;;;1.67;;
1753;SDS011;58380;48.312;9.246;2022-12-24T06:21:00;7.88;;;1.35;;
1753;SDS011;58380;48.312;9.246;2022-12-24T06:23:28;13.70;;;3.63;;
1753;SDS011;58380;48.312;9.246;2022-12-24T06:25:56;10.05;;;3.95;;
1753;SDS011;58380;48.312;9.246;2022-12-24T06:28:27;10.35;;;3.30;;
1753;SDS011;58380;48.312;9.246;2022-12-24T06:30:58;6.18;;;2.05;;
1753;SDS011;58380;48.312;9.246;2022-12-24T06:33:25;7.15;;;2.67;;
1753;SDS011;58380;48.312;9.246;2022-12-24T06:35:50;5.60;;;1.20;;
1753;SDS011;58380;48.312;9.246;2022-12-24T06:38:16;10.00;;;1.57;;
1753;SDS011;58380;48.312;9.246;2022-12-24T06:40:42;8.47;;;1.30;;
1753;SDS011;58380;48.312;9.246;2022-12-24T06:43:09;9.15;;;1.50;;
1753;SDS011;58380;48.312;9.246;2022-12-24T06:45:35;4.68;;;1.17;;
1753;SDS011;58380;48.312;9.246;2022-12-24T06:48:01;11.60;;;2.20;;
1753;SDS011;58380;48.312;9.246;2022-12-24T06:50:26;10.47;;;1.70;;
1753;SDS011;58380;48.312;9.246;2022-12-24T06:52:52;9.87;;;1.53;;
1753;SDS011;58380;48.312;9.246;2022-12-24T06:55:18;14.63;;;2.30;;
1753;SDS011;58380;48.312;9.246;2022-12-24T06:57:43;5.95;;;1.42;;
1753;SDS011;58380;48.312;9.246;2022-12-24T07:00:09;10.63;;;1.40;;
1753;SDS011;58380;48.312;9.246;2022-12-24T07:02:43;11.73;;;1.60;;
1753;SDS011;58380;48.312;9.246;2022-12-24T07:05:12;6.78;;;2.00;;
1753;SDS011;58380;48.312;9.246;2022-12-24T07:07:39;9.70;;;1.85;;
1753;SDS011;58380;48.312;9.246;2022-12-24T07:10:06;7.57;;;1.50;;
1753;SDS011;58380;48.312;9.246;2022-12-24T07:12:35;9.48;;;1.80;;
1753;SDS011;58380;48.312;9.246;2022-12-24T07:15:00;9.33;;;2.10;;
1753;SDS011;58380;48.312;9.246;2022-12-24T07:17:26;7.57;;;1.90;;
1753;SDS011;58380;48.312;9.246;2022-12-24T07:19:51;8.30;;;1.53;;
1753;SDS011;58380;48.312;9.246;2022-12-24T07:22:17;10.85;;;2.33;;
1753;SDS011;58380;48.312;9.246;2022-12-24T07:24:43;14.07;;;4.57;;
1753;SDS011;58380;48.312;9.246;2022-12-24T07:27:08;7.53;;;2.63;;
1753;SDS011;58380;48.312;9.246;2022-12-24T07:29:33;11.07;;;3.03;;
1753;SDS011;58380;48.312;9.246;2022-12-24T07:31:59;10.93;;;2.77;;
1753;SDS011;58380;48.312;9.246;2022-12-24T07:34:25;11.43;;;2.80;;
1753;SDS011;58380;48.312;9.246;2022-12-24T07:36:50;10.33;;;2.30;;
1753;SDS011;58380;48.312;9.246;2022-12-24T07:39:15;10.00;;;2.60;;
1753;SDS011;58380;48.312;9.246;2022-12-24T07:41:41;8.70;;;3.20;;
1753;SDS011;58380;48.312;9.246;2022-12-24T07:44:09;12.90;;;4.05;;
1753;SDS011;58380;48.312;9.246;2022-12-24T07:46:39;7.10;;;2.90;;
1753;SDS011;58380;48.312;9.246;2022-12-24T07:49:04;11.50;;;3.10;;
1753;SDS011;58380;48.312;9.246;2022-12-24T07:51:31;8.60;;;2.50;;
1753;SDS011;58380;48.312;9.246;2022-12-24T07:53:56;14.00;;;3.03;;
1753;SDS011;58380;48.312;9.246;2022-12-24T07:56:22;9.30;;;2.80;;
1753;SDS011;58380;48.312;9.246;2022-12-24T07:58:48;15.85;;;2.95;;
1753;SDS011;58380;48.312;9.246;2022-12-24T08:01:15;25.20;;;11.25;;
1753;SDS011;58380;48.312;9.246;2022-12-24T08:03:41;14.82;;;4.70;;
1753;SDS011;58380;48.312;9.246;2022-12-24T08:06:07;11.10;;;3.73;;
1753;SDS011;58380;48.312;9.246;2022-12-24T08:08:33;14.38;;;5.25;;
1753;SDS011;58380;48.312;9.246;2022-12-24T08:11:02;14.55;;;4.97;;
1753;SDS011;58380;48.312;9.246;2022-12-24T08:13:30;12.00;;;4.78;;
1753;SDS011;58380;48.312;9.246;2022-12-24T08:15:56;11.95;;;3.83;;
1753;SDS011;58380;48.312;9.246;2022-12-24T08:18:22;8.48;;;3.67;;
1753;SDS011;58380;48.312;9.246;2022-12-24T08:23:14;31.77;;;12.55;;
1753;SDS011;58380;48.312;9.246;2022-12-24T08:25:47;28.33;;;10.85;;
1753;SDS011;58380;48.312;9.246;2022-12-24T08:28:13;26.52;;;11.60;;
1753;SDS011;58380;48.312;9.246;2022-12-24T08:30:43;25.42;;;10.77;;
1753;SDS011;58380;48.312;9.246;2022-12-24T08:33:11;25.65;;;11.45;;
1753;SDS011;58380;48.312;9.246;2022-12-24T08:35:36;23.87;;;11.00;;
1753;SDS011;58380;48.312;9.246;2022-12-24T08:38:02;40.97;;;20.40;;
1753;SDS011;58380;48.312;9.246;2022-12-24T08:40:27;33.03;;;14.47;;
1753;SDS011;58380;48.312;9.246;2022-12-24T08:42:53;32.80;;;15.27;;
1753;SDS011;58380;48.312;9.246;2022-12-24T08:45:18;23.87;;;11.50;;
1753;SDS011;58380;48.312;9.246;2022-12-24T08:47:44;25.08;;;12.60;;
1753;SDS011;58380;48.312;9.246;2022-12-24T08:50:10;24.93;;;10.93;;
1753;SDS011;58380;48.312;9.246;2022-12-24T08:52:36;23.98;;;11.38;;
1753;SDS011;58380;48.312;9.246;2022-12-24T08:55:02;18.45;;;8.98;;
1753;SDS011;58380;48.312;9.246;2022-12-24T08:59:54;12.35;;;4.75;;
1753;SDS011;58380;48.312;9.246;2022-12-24T09:02:19;12.20;;;5.73;;
1753;SDS011;58380;48.312;9.246;2022-12-24T09:04:45;17.23;;;7.95;;
1753;SDS011;58380;48.312;9.246;2022-12-24T09:07:10;15.37;;;6.13;;
1753;SDS011;58380;48.312;9.246;2022-12-24T09:09:36;9.95;;;3.17;;
1753;SDS011;58380;48.312;9.246;2022-12-24T09:12:03;25.05;;;11.82;;
1753;SDS011;58380;48.312;9.246;2022-12-24T09:14:30;25.73;;;8.68;;
1753;SDS011;58380;48.312;9.246;2022-12-24T09:16:55;28.30;;;9.50;;
1753;SDS011;58380;48.312;9.246;2022-12-24T09:19:23;26.73;;;8.55;;
1753;SDS011;58380;48.312;9.246;2022-12-24T09:21:48;14.80;;;4.73;;
1753;SDS011;58380;48.312;9.246;2022-12-24T09:24:14;14.43;;;5.47;;
1753;SDS011;58380;48.312;9.246;2022-12-24T09:26:39;19.90;;;4.47;;
1753;SDS011;58380;48.312;9.246;2022-12-24T09:29:06;11.07;;;3.78;;
1753;SDS011;58380;48.312;9.246;2022-12-24T09:31:32;13.63;;;3.90;;
1753;SDS011;58380;48.312;9.246;2022-12-24T09:33:58;11.02;;;3.88;;
1753;SDS011;58380;48.312;9.246;2022-12-24T09:36:23;11.18;;;3.40;;
1753;SDS011;58380;48.312;9.246;2022-12-24T09:38:49;10.38;;;2.88;;
1753;SDS011;58380;48.312;9.246;2022-12-24T09:43:46;5.57;;;2.25;;
1753;SDS011;58380;48.312;9.246;2022-12-24T09:46:27;12.27;;;3.08;;
1753;SDS011;58380;48.312;9.246;2022-12-24T09:49:09;12.20;;;2.40;;
1753;SDS011;58380;48.312;9.246;2022-12-24T09:51:45;22.15;;;6.72;;
1753;SDS011;58380;48.312;9.246;2022-12-24T09:56:50;17.40;;;6.60;;
1753;SDS011;58380;48.312;9.246;2022-12-24T09:59:23;24.17;;;12.05;;
1753;SDS011;58380;48.312;9.246;2022-12-24T10:02:08;10.13;;;3.05;;
1753;SDS011;58380;48.312;9.246;2022-12-24T10:04:38;14.68;;;6.68;;
1753;SDS011;58380;48.312;9.246;2022-12-24T10:07:22;12.60;;;4.70;;
1753;SDS011;58380;48.312;9.246;2022-12-24T10:13:31;12.02;;;3.58;;
1753;SDS011;58380;48.312;9.246;2022-12-24T10:16:18;8.90;;;3.17;;
1753;SDS011;58380;48.312;9.246;2022-12-24T10:21:54;8.70;;;3.05;;
1753;SDS011;58380;48.312;9.246;2022-12-24T10:27:58;14.65;;;3.83;;
1753;SDS011;58380;48.312;9.246;2022-12-24T10:30:27;11.77;;;4.72;;
1753;SDS011;58380;48.312;9.246;2022-12-24T10:32:53;12.35;;;4.68;;
1753;SDS011;58380;48.312;9.246;2022-12-24T10:37:53;10.13;;;2.28;;
1753;SDS011;58380;48.312;9.246;2022-12-24T10:40:23;6.45;;;2.20;;
1753;SDS011;58380;48.312;9.246;2022-12-24T10:45:47;12.52;;;2.67;;
1753;SDS011;58380;48.312;9.246;2022-12-24T10:48:27;10.45;;;2.88;;
1753;SDS011;58380;48.312;9.246;2022-12-24T10:51:12;9.02;;;3.20;;
1753;SDS011;58380;48.312;9.246;2022-12-24T10:53:55;8.30;;;2.70;;
1753;SDS011;58380;48.312;9.246;2022-12-24T10:56:30;10.70;;;3.33;;
1753;SDS011;58380;48.312;9.246;2022-12-24T10:58:56;11.07;;;3.00;;
1753;SDS011;58380;48.312;9.246;2022-12-24T11:04:14;10.52;;;2.70;;
1753;SDS011;58380;48.312;9.246;2022-12-24T11:09:23;7.80;;;2.10;;
1753;SDS011;58380;48.312;9.246;2022-12-24T11:11:55;9.93;;;2.13;;
1753;SDS011;58380;48.312;9.246;2022-12-24T11:14:24;10.95;;;2.85;;
1753;SDS011;58380;48.312;9.246;2022-12-24T11:16:55;5.40;;;1.95;;
1753;SDS011;58380;48.312;9.246;2022-12-24T11:19:40;7.85;;;2.00;;
1753;SDS011;58380;48.312;9.246;2022-12-24T11:22:18;8.77;;;2.28;;
1753;SDS011;58380;48.312;9.246;2022-12-24T11:25:01;7.32;;;2.30;;
1753;SDS011;58380;48.312;9.246;2022-12-24T11:27:44;9.50;;;2.45;;
1753;SDS011;58380;48.312;9.246;2022-12-24T11:32:40;13.07;;;3.33;;
1753;SDS011;58380;48.312;9.246;2022-12-24T11:35:15;9.32;;;2.60;;
1753;SDS011;58380;48.312;9.246;2022-12-24T11:40:27;9.50;;;2.15;;
1753;SDS011;58380;48.312;9.246;2022-12-24T11:43:00;10.50;;;2.55;;
1753;SDS011;58380;48.312;9.246;2022-12-24T11:45:28;11.05;;;3.38;;
1753;SDS011;58380;48.312;9.246;2022-12-24T11:47:56;10.68;;;3.35;;
1753;SDS011;58380;48.312;9.246;2022-12-24T11:50:27;7.70;;;2.70;;
1753;SDS011;58380;48.312;9.246;2022-12-24T11:53:04;12.07;;;3.05;;
1753;SDS011;58380;48.312;9.246;2022-12-24T12:01:11;13.43;;;2.63;;
1753;SDS011;58380;48.312;9.246;2022-12-24T12:03:41;8.85;;;3.70;;
1753;SDS011;58380;48.312;9.246;2022-12-24T12:06:34;8.80;;;3.15;;
1753;SDS011;58380;48.312;9.246;2022-12-24T12:09:11;6.78;;;2.50;;
1753;SDS011;58380;48.312;9.246;2022-12-24T12:11:45;7.57;;;2.45;;
1753;SDS011;58380;48.312;9.246;2022-12-24T12:14:20;7.22;;;2.53;;
1753;SDS011;58380;48.312;9.246;2022-12-24T12:22:30;9.43;;;2.40;;
1753;SDS011;58380;48.312;9.246;2022-12-24T12:25:21;10.32;;;2.50;;
1753;SDS011;58380;48.312;9.246;2022-12-24T12:27:56;11.10;;;2.95;;
1753;SDS011;58380;48.312;9.246;2022-12-24T12:30:26;11.30;;;3.60;;
1753;SDS011;58380;48.312;9.246;2022-12-24T12:32:59;13.27;;;4.10;;
1753;SDS011;58380;48.312;9.246;2022-12-24T12:35:37;10.50;;;3.17;;
1753;SDS011;58380;48.312;9.246;2022-12-24T12:38:08;11.20;;;3.80;;
1753;SDS011;58380;48.312;9.246;2022-12-24T12:43:27;10.88;;;2.58;;
1753;SDS011;58380;48.312;9.246;2022-12-24T12:46:28;11.30;;;2.97;;
1753;SDS011;58380;48.312;9.246;2022-12-24T12:55:44;13.57;;;4.72;;
1753;SDS011;58380;48.312;9.246;2022-12-24T12:58:24;6.82;;;2.33;;
1753;SDS011;58380;48.312;9.246;2022-12-24T13:01:02;12.43;;;4.10;;
1753;SDS011;58380;48.312;9.246;2022-12-24T13:04:00;12.93;;;6.25;;
1753;SDS011;58380;48.312;9.246;2022-12-24T13:07:00;20.83;;;7.68;;
1753;SDS011;58380;48.312;9.246;2022-12-24T13:16:34;13.07;;;3.47;;
1753;SDS011;58380;48.312;9.246;2022-12-24T13:19:16;10.32;;;2.50;;
1753;SDS011;58380;48.312;9.246;2022-12-24T13:21:53;9.77;;;2.83;;
1753;SDS011;58380;48.312;9.246;2022-12-24T13:24:24;7.97;;;2.13;;
1753;SDS011;58380;48.312;9.246;2022-12-24T13:29:59;7.15;;;1.90;;
1753;SDS011;58380;48.312;9.246;2022-12-24T13:32:46;8.90;;;2.23;;
1753;SDS011;58380;48.312;9.246;2022-12-24T13:37:42;9.90;;;2.60;;
1753;SDS011;58380;48.312;9.246;2022-12-24T13:42:49;7.13;;;2.10;;
1753;SDS011;58380;48.312;9.246;2022-12-24T13:50:42;11.85;;;3.40;;
1753;SDS011;58380;48.312;9.246;2022-12-24T13:58:33;7.75;;;2.72;;
1753;SDS011;58380;48.312;9.246;2022-12-24T14:01:05;7.35;;;2.42;;
1753;SDS011;58380;48.312;9.246;2022-12-24T14:03:41;7.15;;;2.10;;
1753;SDS011;58380;48.312;9.246;2022-12-24T14:06:10;6.00;;;1.70;;
1753;SDS011;58380;48.312;9.246;2022-12-24T14:08:49;8.88;;;2.00;;
1753;SDS011;58380;48.312;9.246;2022-12-24T14:11:22;10.27;;;4.47;;
1753;SDS011;58380;48.312;9.246;2022-12-24T14:13:54;9.48;;;3.10;;
1753;SDS011;58380;48.312;9.246;2022-12-24T14:16:50;9.75;;;3.15;;
1753;SDS011;58380;48.312;9.246;2022-12-24T14:19:19;8.85;;;2.78;;
1753;SDS011;58380;48.312;9.246;2022-12-24T14:24:58;6.45;;;2.58;;
1753;SDS011;58380;48.312;9.246;2022-12-24T14:30:24;9.95;;;3.78;;
1753;SDS011;58380;48.312;9.246;2022-12-24T14:32:54;7.88;;;3.50;;
1753;SDS011;58380;48.312;9.246;2022-12-24T14:35:22;8.07;;;3.20;;
1753;SDS011;58380;48.312;9.246;2022-12-24T14:37:59;14.50;;;5.78;;
1753;SDS011;58380;48.312;9.246;2022-12-24T14:40:49;15.23;;;6.10;;
1753;SDS011;58380;48.312;9.246;2022-12-24T14:50:36;11.32;;;4.25;;
1753;SDS011;58380;48.312;9.246;2022-12-24T14:55:51;11.65;;;4.07;;
1753;SDS011;58380;48.312;9.246;2022-12-24T14:58:18;17.47;;;5.90;;
1753;SDS011;58380;48.312;9.246;2022-12-24T15:00:56;12.45;;;4.07;;
1753;SDS011;58380;48.312;9.246;2022-12-24T15:03:26;38.30;;;14.63;;
1753;SDS011;58380;48.312;9.246;2022-12-24T15:05:56;23.67;;;8.98;;
1753;SDS011;58380;48.312;9.246;2022-12-24T15:08:31;20.48;;;7.63;;
1753;SDS011;58380;48.312;9.246;2022-12-24T15:11:03;11.73;;;4.30;;
1753;SDS011;58380;48.312;9.246;2022-12-24T15:13:34;8.35;;;3.20;;
1753;SDS011;58380;48.312;9.246;2022-12-24T15:16:07;19.30;;;6.68;;
1753;SDS011;58380;48.312;9.246;2022-12-24T15:18:38;16.45;;;4.68;;
1753;SDS011;58380;48.312;9.246;2022-12-24T15:21:24;10.82;;;3.28;;
1753;SDS011;58380;48.312;9.246;2022-12-24T15:23:57;5.35;;;2.55;;
1753;SDS011;58380;48.312;9.246;2022-12-24T15:28:53;9.90;;;2.35;;
1753;SDS011;58380;48.312;9.246;2022-12-24T15:31:23;8.57;;;2.30;;
1753;SDS011;58380;48.312;9.246;2022-12-24T15:33:53;15.05;;;5.50;;
1753;SDS011;58380;48.312;9.246;2022-12-24T15:36:31;10.68;;;3.05;;
1753;SDS011;58380;48.312;9.246;2022-12-24T15:39:03;8.15;;;3.22;;
1753;SDS011;58380;48.312;9.246;2022-12-24T15:41:40;6.57;;;2.75;;
1753;SDS011;58380;48.312;9.246;2022-12-24T15:44:34;17.10;;;4.72;;
1753;SDS011;58380;48.312;9.246;2022-12-24T15:47:03;6.60;;;2.90;;
1753;SDS011;58380;48.312;9.246;2022-12-24T15:49:38;6.63;;;2.50;;
1753;SDS011;58380;48.312;9.246;2022-12-24T15:52:05;8.45;;;2.90;;
1753;SDS011;58380;48.312;9.246;2022-12-24T15:54:36;5.80;;;2.15;;
1753;SDS011;58380;48.312;9.246;2022-12-24T15:57:25;6.53;;;2.50;;
1753;SDS011;58380;48.312;9.246;2022-12-24T15:59:56;10.60;;;5.03;;
1753;SDS011;58380;48.312;9.246;2022-12-24T16:02:43;8.77;;;3.72;;
1753;SDS011;58380;48.312;9.246;2022-12-24T16:08:01;14.48;;;5.65;;
1753;SDS011;58380;48.312;9.246;2022-12-24T16:10:38;13.23;;;5.47;;
1753;SDS011;58380;48.312;9.246;2022-12-24T16:13:21;9.70;;;5.03;;
1753;SDS011;58380;48.312;9.246;2022-12-24T16:15:57;12.30;;;5.28;;
1753;SDS011;58380;48.312;9.246;2022-12-24T16:18:31;11.80;;;4.72;;
1753;SDS011;58380;48.312;9.246;2022-12-24T16:21:02;7.00;;;3.17;;
1753;SDS011;58380;48.312;9.246;2022-12-24T16:26:09;12.27;;;3.42;;
1753;SDS011;58380;48.312;9.246;2022-12-24T16:28:34;6.93;;;3.87;;
1753;SDS011;58380;48.312;9.246;2022-12-24T16:31:00;11.93;;;4.57;;
1753;SDS011;58380;48.312;9.246;2022-12-24T16:33:26;13.60;;;3.95;;
1753;SDS011;58380;48.312;9.246;2022-12-24T16:35:52;8.93;;;3.58;;
1753;SDS011;58380;48.312;9.246;2022-12-24T16:38:19;10.77;;;4.90;;
1753;SDS011;58380;48.312;9.246;2022-12-24T16:40:45;11.80;;;4.70;;
1753;SDS011;58380;48.312;9.246;2022-12-24T16:43:11;7.50;;;3.33;;
1753;SDS011;58380;48.312;9.246;2022-12-24T16:46:02;7.97;;;3.30;;
1753;SDS011;58380;48.312;9.246;2022-12-24T16:48:30;4.72;;;2.25;;
1753;SDS011;58380;48.312;9.246;2022-12-24T16:51:00;6.28;;;2.83;;
1753;SDS011;58380;48.312;9.246;2022-12-24T16:53:26;6.05;;;2.53;;
1753;SDS011;58380;48.312;9.246;2022-12-24T16:55:52;5.47;;;2.67;;
1753;SDS011;58380;48.312;9.246;2022-12-24T16:58:18;6.45;;;2.83;;
1753;SDS011;58380;48.312;9.246;2022-12-24T17:00:44;5.07;;;2.60;;
1753;SDS011;58380;48.312;9.246;2022-12-24T17:03:11;3.83;;;2.13;;
1753;SDS011;58380;48.312;9.246;2022-12-24T17:05:37;7.15;;;2.40;;
1753;SDS011;58380;48.312;9.246;2022-12-24T17:08:05;4.93;;;2.17;;
1753;SDS011;58380;48.312;9.246;2022-12-24T17:10:32;5.68;;;2.45;;
1753;SDS011;58380;48.312;9.246;2022-12-24T17:12:58;3.85;;;2.40;;
1753;SDS011;58380;48.312;9.246;2022-12-24T17:15:24;6.80;;;2.70;;
1753;SDS011;58380;48.312;9.246;2022-12-24T17:17:49;6.30;;;2.70;;
1753;SDS011;58380;48.312;9.246;2022-12-24T17:20:15;9.37;;;2.80;;
1753;SDS011;58380;48.312;9.246;2022-12-24T17:22:40;5.97;;;2.40;;
1753;SDS011;58380;48.312;9.246;2022-12-24T17:25:06;6.50;;;2.93;;
1753;SDS011;58380;48.312;9.246;2022-12-24T17:27:34;16.02;;;7.40;;
1753;SDS011;58380;48.312;9.246;2022-12-24T17:29:59;20.50;;;8.40;;
1753;SDS011;58380;48.312;9.246;2022-12-24T17:32:25;14.20;;;6.17;;
1753;SDS011;58380;48.312;9.246;2022-12-24T17:34:53;28.60;;;11.77;;
1753;SDS011;58380;48.312;9.246;2022-12-24T17:37:55;14.07;;;5.75;;